Alto Araguaia, Brazil
Current Conditions -  °F | °C
As of 5:00 PM on Tuesday 21 Oct 2014 (Local Time) from SBCY Reporting Station
Few Clouds Few Clouds  
Wind Chill: 93°   Ceiling: Unl
Heat Index: 96°   Visibility: 6mi
Dew Point: 66°   Wind: 13mph
Humidity: 41%   Direction: 180°S
Pressure: 29.83"   Gusts: NA
Location:  17.31°S, 53.22°W
Report Text: SBCY 212000Z 18011KT 9999 FEW020 34/19 Q1010
Loading
Personal Weather Stations






























Interactive Weather Map
Tropical Storm Tracking
New forecast layout! Learn more

10-Day Weather Forecast

Advertisements
Track Severe Weather on mobile